sensor_id;sensor_type;location;lat;lon;timestamp;temperature;humidity
60039;DHT22;45916;52.734;6.544;2023-09-18T00:00:50;16.10;99.90
60039;DHT22;45916;52.734;6.544;2023-09-18T00:03:20;16.00;99.90
60039;DHT22;45916;52.734;6.544;2023-09-18T00:05:47;16.00;99.90
60039;DHT22;45916;52.734;6.544;2023-09-18T00:08:14;15.90;99.90
60039;DHT22;45916;52.734;6.544;2023-09-18T00:10:40;15.90;99.90
60039;DHT22;45916;52.734;6.544;2023-09-18T00:13:06;15.80;99.90
60039;DHT22;45916;52.734;6.544;2023-09-18T00:15:31;15.90;99.90
60039;DHT22;45916;52.734;6.544;2023-09-18T00:17:57;16.00;99.90
60039;DHT22;45916;52.734;6.544;2023-09-18T00:20:23;16.00;99.90
60039;DHT22;45916;52.734;6.544;2023-09-18T00:22:54;16.20;99.90
60039;DHT22;45916;52.734;6.544;2023-09-18T00:25:20;16.30;99.90
60039;DHT22;45916;52.734;6.544;2023-09-18T00:27:46;16.40;99.90
60039;DHT22;45916;52.734;6.544;2023-09-18T00:30:12;16.40;99.90
60039;DHT22;45916;52.734;6.544;2023-09-18T00:32:37;16.50;99.90
60039;DHT22;45916;52.734;6.544;2023-09-18T00:35:03;16.50;99.90
60039;DHT22;45916;52.734;6.544;2023-09-18T00:37:29;16.60;99.90
60039;DHT22;45916;52.734;6.544;2023-09-18T00:39:55;16.60;99.90
60039;DHT22;45916;52.734;6.544;2023-09-18T00:42:21;16.50;99.90
60039;DHT22;45916;52.734;6.544;2023-09-18T00:44:48;16.60;99.90
60039;DHT22;45916;52.734;6.544;2023-09-18T00:47:14;16.60;99.90
60039;DHT22;45916;52.734;6.544;2023-09-18T00:49:42;16.70;99.90
60039;DHT22;45916;52.734;6.544;2023-09-18T00:52:10;16.70;99.90
60039;DHT22;45916;52.734;6.544;2023-09-18T00:54:37;16.70;99.90
60039;DHT22;45916;52.734;6.544;2023-09-18T00:57:04;16.70;99.90
60039;DHT22;45916;52.734;6.544;2023-09-18T00:59:31;16.70;99.90
60039;DHT22;45916;52.734;6.544;2023-09-18T01:01:57;16.70;99.90
60039;DHT22;45916;52.734;6.544;2023-09-18T01:04:23;16.70;99.90
60039;DHT22;45916;52.734;6.544;2023-09-18T01:06:50;16.70;99.90
60039;DHT22;45916;52.734;6.544;2023-09-18T01:09:19;16.70;99.90
60039;DHT22;45916;52.734;6.544;2023-09-18T01:12:27;16.80;99.90
60039;DHT22;45916;52.734;6.544;2023-09-18T01:15:09;16.80;99.90
60039;DHT22;45916;52.734;6.544;2023-09-18T01:17:37;16.90;99.90
60039;DHT22;45916;52.734;6.544;2023-09-18T01:20:09;16.90;99.90
60039;DHT22;45916;52.734;6.544;2023-09-18T01:22:36;16.90;99.90
60039;DHT22;45916;52.734;6.544;2023-09-18T01:25:01;16.90;99.90
60039;DHT22;45916;52.734;6.544;2023-09-18T01:27:28;16.90;99.90
60039;DHT22;45916;52.734;6.544;2023-09-18T01:29:53;16.90;99.90
60039;DHT22;45916;52.734;6.544;2023-09-18T01:32:19;17.00;99.90
60039;DHT22;45916;52.734;6.544;2023-09-18T01:34:51;16.90;99.90
60039;DHT22;45916;52.734;6.544;2023-09-18T01:37:20;16.90;99.90
60039;DHT22;45916;52.734;6.544;2023-09-18T01:39:48;16.90;99.90
60039;DHT22;45916;52.734;6.544;2023-09-18T01:42:15;16.90;99.90
60039;DHT22;45916;52.734;6.544;2023-09-18T01:44:41;17.00;99.90
60039;DHT22;45916;52.734;6.544;2023-09-18T01:47:09;17.00;99.90
60039;DHT22;45916;52.734;6.544;2023-09-18T01:49:37;17.00;99.90
60039;DHT22;45916;52.734;6.544;2023-09-18T01:52:04;17.10;99.90
60039;DHT22;45916;52.734;6.544;2023-09-18T01:54:31;17.10;99.90
60039;DHT22;45916;52.734;6.544;2023-09-18T01:56:56;17.10;99.90
60039;DHT22;45916;52.734;6.544;2023-09-18T01:59:23;17.10;99.90
60039;DHT22;45916;52.734;6.544;2023-09-18T02:01:49;17.20;99.90
60039;DHT22;45916;52.734;6.544;2023-09-18T02:04:16;17.20;99.90
60039;DHT22;45916;52.734;6.544;2023-09-18T02:06:42;17.10;99.90
60039;DHT22;45916;52.734;6.544;2023-09-18T02:09:08;17.20;99.90
60039;DHT22;45916;52.734;6.544;2023-09-18T02:11:39;17.20;99.90
60039;DHT22;45916;52.734;6.544;2023-09-18T02:14:05;17.20;99.90
60039;DHT22;45916;52.734;6.544;2023-09-18T02:16:36;17.20;99.90
60039;DHT22;45916;52.734;6.544;2023-09-18T02:19:02;17.20;99.90
60039;DHT22;45916;52.734;6.544;2023-09-18T02:21:29;17.20;99.90
60039;DHT22;45916;52.734;6.544;2023-09-18T02:23:55;17.20;99.90
60039;DHT22;45916;52.734;6.544;2023-09-18T02:26:22;17.20;99.90
60039;DHT22;45916;52.734;6.544;2023-09-18T02:28:48;17.20;99.90
60039;DHT22;45916;52.734;6.544;2023-09-18T02:31:14;17.20;99.90
60039;DHT22;45916;52.734;6.544;2023-09-18T02:33:40;17.20;99.90
60039;DHT22;45916;52.734;6.544;2023-09-18T02:36:06;17.20;99.90
60039;DHT22;45916;52.734;6.544;2023-09-18T02:38:33;17.20;99.90
60039;DHT22;45916;52.734;6.544;2023-09-18T02:40:59;17.30;99.90
60039;DHT22;45916;52.734;6.544;2023-09-18T02:43:25;17.30;99.90
60039;DHT22;45916;52.734;6.544;2023-09-18T02:45:51;17.30;99.90
60039;DHT22;45916;52.734;6.544;2023-09-18T02:48:17;17.30;99.90
60039;DHT22;45916;52.734;6.544;2023-09-18T02:50:43;17.30;99.90
60039;DHT22;45916;52.734;6.544;2023-09-18T02:53:18;17.40;99.90
60039;DHT22;45916;52.734;6.544;2023-09-18T02:55:46;17.40;99.90
60039;DHT22;45916;52.734;6.544;2023-09-18T02:58:11;17.30;99.90
60039;DHT22;45916;52.734;6.544;2023-09-18T03:00:43;17.40;99.90
60039;DHT22;45916;52.734;6.544;2023-09-18T03:03:10;17.50;99.90
60039;DHT22;45916;52.734;6.544;2023-09-18T03:05:36;17.60;99.90
60039;DHT22;45916;52.734;6.544;2023-09-18T03:08:02;17.60;99.90
60039;DHT22;45916;52.734;6.544;2023-09-18T03:10:32;17.60;99.90
60039;DHT22;45916;52.734;6.544;2023-09-18T03:12:57;17.70;99.90
60039;DHT22;45916;52.734;6.544;2023-09-18T03:15:23;17.70;99.90
60039;DHT22;45916;52.734;6.544;2023-09-18T03:17:50;17.80;99.90
60039;DHT22;45916;52.734;6.544;2023-09-18T03:20:16;17.80;99.90
60039;DHT22;45916;52.734;6.544;2023-09-18T03:22:42;17.90;99.90
60039;DHT22;45916;52.734;6.544;2023-09-18T03:25:08;17.90;99.90
60039;DHT22;45916;52.734;6.544;2023-09-18T03:27:35;18.00;99.90
60039;DHT22;45916;52.734;6.544;2023-09-18T03:30:01;18.00;99.90
60039;DHT22;45916;52.734;6.544;2023-09-18T03:32:27;18.00;99.90
60039;DHT22;45916;52.734;6.544;2023-09-18T03:34:53;17.90;99.90
60039;DHT22;45916;52.734;6.544;2023-09-18T03:37:19;17.90;99.90
60039;DHT22;45916;52.734;6.544;2023-09-18T03:39:45;17.90;99.90
60039;DHT22;45916;52.734;6.544;2023-09-18T03:42:10;17.90;99.90
60039;DHT22;45916;52.734;6.544;2023-09-18T03:44:36;18.00;99.90
60039;DHT22;45916;52.734;6.544;2023-09-18T03:47:02;18.00;99.90
60039;DHT22;45916;52.734;6.544;2023-09-18T03:49:29;18.10;99.90
60039;DHT22;45916;52.734;6.544;2023-09-18T03:51:55;18.10;99.90
60039;DHT22;45916;52.734;6.544;2023-09-18T03:54:21;18.10;99.90
60039;DHT22;45916;52.734;6.544;2023-09-18T03:56:46;18.10;99.90
60039;DHT22;45916;52.734;6.544;2023-09-18T03:59:13;18.10;99.90
60039;DHT22;45916;52.734;6.544;2023-09-18T04:01:39;18.00;99.90
60039;DHT22;45916;52.734;6.544;2023-09-18T04:04:05;18.00;99.90
60039;DHT22;45916;52.734;6.544;2023-09-18T04:06:43;17.90;99.90
60039;DHT22;45916;52.734;6.544;2023-09-18T04:09:09;17.90;99.90
60039;DHT22;45916;52.734;6.544;2023-09-18T04:11:35;17.90;99.90
60039;DHT22;45916;52.734;6.544;2023-09-18T04:14:01;17.90;99.90
60039;DHT22;45916;52.734;6.544;2023-09-18T04:16:29;17.90;99.90
60039;DHT22;45916;52.734;6.544;2023-09-18T04:18:56;18.00;99.90
60039;DHT22;45916;52.734;6.544;2023-09-18T04:21:22;18.00;99.90
60039;DHT22;45916;52.734;6.544;2023-09-18T04:23:49;18.00;99.90
60039;DHT22;45916;52.734;6.544;2023-09-18T04:26:21;18.10;99.90
60039;DHT22;45916;52.734;6.544;2023-09-18T04:28:47;18.10;99.90
60039;DHT22;45916;52.734;6.544;2023-09-18T04:31:13;18.10;99.90
60039;DHT22;45916;52.734;6.544;2023-09-18T04:33:39;18.20;99.90
60039;DHT22;45916;52.734;6.544;2023-09-18T04:36:05;18.20;99.90
60039;DHT22;45916;52.734;6.544;2023-09-18T04:38:30;18.20;99.90
60039;DHT22;45916;52.734;6.544;2023-09-18T04:41:00;18.30;99.90
60039;DHT22;45916;52.734;6.544;2023-09-18T04:43:26;18.30;99.90
60039;DHT22;45916;52.734;6.544;2023-09-18T04:45:54;18.30;99.90
60039;DHT22;45916;52.734;6.544;2023-09-18T04:48:20;18.30;99.90
60039;DHT22;45916;52.734;6.544;2023-09-18T04:50:45;18.30;99.90
60039;DHT22;45916;52.734;6.544;2023-09-18T04:53:12;18.30;99.90
60039;DHT22;45916;52.734;6.544;2023-09-18T04:55:37;18.30;99.90
60039;DHT22;45916;52.734;6.544;2023-09-18T04:58:03;18.30;99.90
60039;DHT22;45916;52.734;6.544;2023-09-18T05:00:30;18.30;99.90
60039;DHT22;45916;52.734;6.544;2023-09-18T05:02:57;18.30;99.90
60039;DHT22;45916;52.734;6.544;2023-09-18T05:05:26;18.20;99.90
60039;DHT22;45916;52.734;6.544;2023-09-18T05:07:52;18.20;99.90
60039;DHT22;45916;52.734;6.544;2023-09-18T05:10:18;18.20;99.90
60039;DHT22;45916;52.734;6.544;2023-09-18T05:12:43;18.20;99.90
60039;DHT22;45916;52.734;6.544;2023-09-18T05:15:09;18.20;99.90
60039;DHT22;45916;52.734;6.544;2023-09-18T05:17:41;18.20;99.90
60039;DHT22;45916;52.734;6.544;2023-09-18T05:20:09;18.20;99.90
60039;DHT22;45916;52.734;6.544;2023-09-18T05:22:37;18.20;99.90
60039;DHT22;45916;52.734;6.544;2023-09-18T05:25:02;18.30;99.90
60039;DHT22;45916;52.734;6.544;2023-09-18T05:27:29;18.30;99.90
60039;DHT22;45916;52.734;6.544;2023-09-18T05:29:55;18.30;99.90
60039;DHT22;45916;52.734;6.544;2023-09-18T05:32:21;18.30;99.90
60039;DHT22;45916;52.734;6.544;2023-09-18T05:34:46;18.30;99.90
60039;DHT22;45916;52.734;6.544;2023-09-18T05:37:12;18.40;99.90
60039;DHT22;45916;52.734;6.544;2023-09-18T05:39:38;18.30;99.90
60039;DHT22;45916;52.734;6.544;2023-09-18T05:42:04;18.30;99.90
60039;DHT22;45916;52.734;6.544;2023-09-18T05:44:30;18.40;99.90
60039;DHT22;45916;52.734;6.544;2023-09-18T05:46:56;18.40;99.90
60039;DHT22;45916;52.734;6.544;2023-09-18T05:49:21;18.40;99.90
60039;DHT22;45916;52.734;6.544;2023-09-18T05:51:47;18.40;99.90
60039;DHT22;45916;52.734;6.544;2023-09-18T05:54:14;18.40;99.90
60039;DHT22;45916;52.734;6.544;2023-09-18T05:56:40;18.40;99.90
60039;DHT22;45916;52.734;6.544;2023-09-18T05:59:05;18.40;99.90
60039;DHT22;45916;52.734;6.544;2023-09-18T06:01:31;18.50;99.90
60039;DHT22;45916;52.734;6.544;2023-09-18T06:03:58;18.50;99.90
60039;DHT22;45916;52.734;6.544;2023-09-18T06:06:24;18.60;99.90
60039;DHT22;45916;52.734;6.544;2023-09-18T06:08:51;18.60;99.90
60039;DHT22;45916;52.734;6.544;2023-09-18T06:11:19;18.60;99.90
60039;DHT22;45916;52.734;6.544;2023-09-18T06:13:45;18.60;99.90
60039;DHT22;45916;52.734;6.544;2023-09-18T06:16:11;18.70;99.90
60039;DHT22;45916;52.734;6.544;2023-09-18T06:18:37;18.70;99.90
60039;DHT22;45916;52.734;6.544;2023-09-18T06:21:04;18.70;99.90
60039;DHT22;45916;52.734;6.544;2023-09-18T06:23:30;18.80;99.90
60039;DHT22;45916;52.734;6.544;2023-09-18T06:25:57;18.80;99.90
60039;DHT22;45916;52.734;6.544;2023-09-18T06:28:24;18.80;99.90
60039;DHT22;45916;52.734;6.544;2023-09-18T06:30:50;18.90;99.90
60039;DHT22;45916;52.734;6.544;2023-09-18T06:33:16;18.90;99.90
60039;DHT22;45916;52.734;6.544;2023-09-18T06:35:42;18.90;99.90
60039;DHT22;45916;52.734;6.544;2023-09-18T06:38:08;18.80;99.90
60039;DHT22;45916;52.734;6.544;2023-09-18T06:40:35;18.60;99.90
60039;DHT22;45916;52.734;6.544;2023-09-18T06:43:01;18.40;99.90
60039;DHT22;45916;52.734;6.544;2023-09-18T06:45:27;18.30;99.90
60039;DHT22;45916;52.734;6.544;2023-09-18T06:47:53;18.30;99.90
60039;DHT22;45916;52.734;6.544;2023-09-18T06:50:19;18.20;99.90
60039;DHT22;45916;52.734;6.544;2023-09-18T06:52:45;18.20;99.90
60039;DHT22;45916;52.734;6.544;2023-09-18T06:55:12;18.20;99.90
60039;DHT22;45916;52.734;6.544;2023-09-18T06:57:37;18.20;99.90
60039;DHT22;45916;52.734;6.544;2023-09-18T07:00:04;18.20;99.90
60039;DHT22;45916;52.734;6.544;2023-09-18T07:02:30;18.10;99.90
60039;DHT22;45916;52.734;6.544;2023-09-18T07:04:56;18.20;99.90
60039;DHT22;45916;52.734;6.544;2023-09-18T07:07:22;18.20;99.90
60039;DHT22;45916;52.734;6.544;2023-09-18T07:09:51;18.20;99.90
60039;DHT22;45916;52.734;6.544;2023-09-18T07:12:17;18.30;99.90
60039;DHT22;45916;52.734;6.544;2023-09-18T07:14:46;18.30;99.90
60039;DHT22;45916;52.734;6.544;2023-09-18T07:17:12;18.40;99.90
60039;DHT22;45916;52.734;6.544;2023-09-18T07:19:38;18.60;99.90
60039;DHT22;45916;52.734;6.544;2023-09-18T07:22:04;18.70;99.90
60039;DHT22;45916;52.734;6.544;2023-09-18T07:24:30;18.80;99.90
60039;DHT22;45916;52.734;6.544;2023-09-18T07:26:55;18.90;99.90
60039;DHT22;45916;52.734;6.544;2023-09-18T07:29:23;19.00;99.90
60039;DHT22;45916;52.734;6.544;2023-09-18T07:31:51;19.10;99.90
60039;DHT22;45916;52.734;6.544;2023-09-18T07:34:17;19.10;99.90
60039;DHT22;45916;52.734;6.544;2023-09-18T07:36:43;19.10;99.90
60039;DHT22;45916;52.734;6.544;2023-09-18T07:39:10;19.00;99.90
60039;DHT22;45916;52.734;6.544;2023-09-18T07:41:37;18.90;99.90
60039;DHT22;45916;52.734;6.544;2023-09-18T07:44:03;18.80;99.90
60039;DHT22;45916;52.734;6.544;2023-09-18T07:46:29;18.80;99.90
60039;DHT22;45916;52.734;6.544;2023-09-18T07:48:55;18.80;99.90
60039;DHT22;45916;52.734;6.544;2023-09-18T07:51:21;18.90;99.90
60039;DHT22;45916;52.734;6.544;2023-09-18T07:53:49;18.90;99.90
60039;DHT22;45916;52.734;6.544;2023-09-18T07:56:16;18.90;99.90
60039;DHT22;45916;52.734;6.544;2023-09-18T07:58:44;18.90;99.90
60039;DHT22;45916;52.734;6.544;2023-09-18T08:01:13;19.00;99.90
60039;DHT22;45916;52.734;6.544;2023-09-18T08:03:42;19.00;99.90
60039;DHT22;45916;52.734;6.544;2023-09-18T08:06:08;19.00;99.90
60039;DHT22;45916;52.734;6.544;2023-09-18T08:08:34;19.00;99.90
60039;DHT22;45916;52.734;6.544;2023-09-18T08:11:07;19.00;99.90
60039;DHT22;45916;52.734;6.544;2023-09-18T08:13:36;18.90;99.90
60039;DHT22;45916;52.734;6.544;2023-09-18T08:16:05;18.90;99.90
60039;DHT22;45916;52.734;6.544;2023-09-18T08:18:31;19.00;99.90
60039;DHT22;45916;52.734;6.544;2023-09-18T08:20:57;19.00;99.90
60039;DHT22;45916;52.734;6.544;2023-09-18T08:23:26;19.10;99.90
60039;DHT22;45916;52.734;6.544;2023-09-18T08:25:52;19.10;99.90
60039;DHT22;45916;52.734;6.544;2023-09-18T08:28:21;19.10;99.90
60039;DHT22;45916;52.734;6.544;2023-09-18T08:30:47;19.10;99.90
60039;DHT22;45916;52.734;6.544;2023-09-18T08:33:13;19.10;99.90
60039;DHT22;45916;52.734;6.544;2023-09-18T08:35:39;19.20;99.90
60039;DHT22;45916;52.734;6.544;2023-09-18T08:38:05;19.20;99.90
60039;DHT22;45916;52.734;6.544;2023-09-18T08:40:33;19.30;99.90
60039;DHT22;45916;52.734;6.544;2023-09-18T08:42:59;19.30;99.90
60039;DHT22;45916;52.734;6.544;2023-09-18T08:46:06;19.40;99.90
60039;DHT22;45916;52.734;6.544;2023-09-18T08:48:32;19.40;99.90
60039;DHT22;45916;52.734;6.544;2023-09-18T08:51:06;19.50;99.90
60039;DHT22;45916;52.734;6.544;2023-09-18T08:53:33;19.50;99.90
60039;DHT22;45916;52.734;6.544;2023-09-18T08:56:00;19.40;99.90
60039;DHT22;45916;52.734;6.544;2023-09-18T08:58:39;19.50;99.90
60039;DHT22;45916;52.734;6.544;2023-09-18T09:01:09;19.60;99.90
60039;DHT22;45916;52.734;6.544;2023-09-18T09:03:39;19.70;99.90
60039;DHT22;45916;52.734;6.544;2023-09-18T09:06:09;19.70;99.90
60039;DHT22;45916;52.734;6.544;2023-09-18T09:08:36;19.80;99.90
60039;DHT22;45916;52.734;6.544;2023-09-18T09:11:02;19.80;99.90
60039;DHT22;45916;52.734;6.544;2023-09-18T09:13:28;19.80;99.90
60039;DHT22;45916;52.734;6.544;2023-09-18T09:15:55;19.80;99.90
60039;DHT22;45916;52.734;6.544;2023-09-18T09:18:22;19.90;99.90
60039;DHT22;45916;52.734;6.544;2023-09-18T09:20:59;19.90;99.90
60039;DHT22;45916;52.734;6.544;2023-09-18T09:23:27;20.10;99.90
60039;DHT22;45916;52.734;6.544;2023-09-18T09:25:54;20.40;99.90
60039;DHT22;45916;52.734;6.544;2023-09-18T09:28:32;20.70;99.90
60039;DHT22;45916;52.734;6.544;2023-09-18T09:31:00;21.00;99.90
60039;DHT22;45916;52.734;6.544;2023-09-18T09:33:31;21.30;99.90
60039;DHT22;45916;52.734;6.544;2023-09-18T09:35:57;21.50;99.90
60039;DHT22;45916;52.734;6.544;2023-09-18T09:38:31;21.70;99.90
60039;DHT22;45916;52.734;6.544;2023-09-18T09:41:01;22.00;99.90
60039;DHT22;45916;52.734;6.544;2023-09-18T09:43:29;22.20;99.90
60039;DHT22;45916;52.734;6.544;2023-09-18T09:46:00;22.50;99.90
60039;DHT22;45916;52.734;6.544;2023-09-18T09:48:27;22.70;99.90
60039;DHT22;45916;52.734;6.544;2023-09-18T09:50:58;22.60;99.90
60039;DHT22;45916;52.734;6.544;2023-09-18T09:53:45;22.90;99.90
60039;DHT22;45916;52.734;6.544;2023-09-18T09:56:16;23.40;99.90
60039;DHT22;45916;52.734;6.544;2023-09-18T09:59:04;24.10;99.90
60039;DHT22;45916;52.734;6.544;2023-09-18T10:01:34;24.50;99.90
60039;DHT22;45916;52.734;6.544;2023-09-18T10:04:04;24.60;99.90
60039;DHT22;45916;52.734;6.544;2023-09-18T10:06:34;24.60;99.90
60039;DHT22;45916;52.734;6.544;2023-09-18T10:09:04;24.60;99.90
60039;DHT22;45916;52.734;6.544;2023-09-18T10:11:34;24.60;99.90
60039;DHT22;45916;52.734;6.544;2023-09-18T10:14:29;24.60;99.90
60039;DHT22;45916;52.734;6.544;2023-09-18T10:16:59;24.50;99.90
60039;DHT22;45916;52.734;6.544;2023-09-18T10:20:01;25.30;99.90
60039;DHT22;45916;52.734;6.544;2023-09-18T10:22:45;26.10;99.90
60039;DHT22;45916;52.734;6.544;2023-09-18T10:25:23;26.30;99.90
60039;DHT22;45916;52.734;6.544;2023-09-18T10:27:51;27.60;99.90
60039;DHT22;45916;52.734;6.544;2023-09-18T10:30:20;28.40;99.90
60039;DHT22;45916;52.734;6.544;2023-09-18T10:32:48;29.30;99.90
60039;DHT22;45916;52.734;6.544;2023-09-18T10:35:15;29.80;99.90
60039;DHT22;45916;52.734;6.544;2023-09-18T10:37:45;30.10;99.90
60039;DHT22;45916;52.734;6.544;2023-09-18T10:40:11;31.20;99.90
60039;DHT22;45916;52.734;6.544;2023-09-18T10:42:39;31.10;99.90
60039;DHT22;45916;52.734;6.544;2023-09-18T10:45:09;30.80;99.90
60039;DHT22;45916;52.734;6.544;2023-09-18T10:47:41;30.80;99.90
60039;DHT22;45916;52.734;6.544;2023-09-18T10:50:08;31.30;99.90
60039;DHT22;45916;52.734;6.544;2023-09-18T10:52:35;31.60;98.70
60039;DHT22;45916;52.734;6.544;2023-09-18T10:55:01;31.60;93.90
60039;DHT22;45916;52.734;6.544;2023-09-18T10:57:34;31.10;92.50
60039;DHT22;45916;52.734;6.544;2023-09-18T11:00:01;30.70;97.80
60039;DHT22;45916;52.734;6.544;2023-09-18T11:02:40;30.20;99.90
60039;DHT22;45916;52.734;6.544;2023-09-18T11:05:06;29.80;99.90
60039;DHT22;45916;52.734;6.544;2023-09-18T11:07:32;29.40;99.90
60039;DHT22;45916;52.734;6.544;2023-09-18T11:09:58;28.80;99.90
60039;DHT22;45916;52.734;6.544;2023-09-18T11:12:43;28.20;99.90
60039;DHT22;45916;52.734;6.544;2023-09-18T11:15:09;27.40;99.90
60039;DHT22;45916;52.734;6.544;2023-09-18T11:17:59;26.80;99.90
60039;DHT22;45916;52.734;6.544;2023-09-18T11:20:25;26.60;99.90
60039;DHT22;45916;52.734;6.544;2023-09-18T11:23:15;26.80;99.90
60039;DHT22;45916;52.734;6.544;2023-09-18T11:25:42;26.70;99.90
60039;DHT22;45916;52.734;6.544;2023-09-18T11:28:17;26.70;99.90
60039;DHT22;45916;52.734;6.544;2023-09-18T11:30:56;26.70;99.90
60039;DHT22;45916;52.734;6.544;2023-09-18T11:33:32;26.80;99.90
60039;DHT22;45916;52.734;6.544;2023-09-18T11:36:12;26.80;99.90
60039;DHT22;45916;52.734;6.544;2023-09-18T11:38:53;27.00;99.90
60039;DHT22;45916;52.734;6.544;2023-09-18T11:41:21;27.20;99.90
60039;DHT22;45916;52.734;6.544;2023-09-18T11:43:47;27.30;99.90
60039;DHT22;45916;52.734;6.544;2023-09-18T11:46:18;26.80;99.90
60039;DHT22;45916;52.734;6.544;2023-09-18T11:48:45;26.50;99.90
60039;DHT22;45916;52.734;6.544;2023-09-18T11:51:12;26.10;99.90
60039;DHT22;45916;52.734;6.544;2023-09-18T11:53:39;26.00;99.90
60039;DHT22;45916;52.734;6.544;2023-09-18T11:56:12;26.20;99.90
60039;DHT22;45916;52.734;6.544;2023-09-18T11:58:47;26.30;99.90
60039;DHT22;45916;52.734;6.544;2023-09-18T12:01:14;26.00;99.90
60039;DHT22;45916;52.734;6.544;2023-09-18T12:03:43;25.90;99.90
60039;DHT22;45916;52.734;6.544;2023-09-18T12:06:09;25.70;99.90
60039;DHT22;45916;52.734;6.544;2023-09-18T12:08:39;25.70;99.90
60039;DHT22;45916;52.734;6.544;2023-09-18T12:11:06;25.60;99.90
60039;DHT22;45916;52.734;6.544;2023-09-18T12:13:32;25.60;99.90
60039;DHT22;45916;52.734;6.544;2023-09-18T12:16:02;25.50;99.90
60039;DHT22;45916;52.734;6.544;2023-09-18T12:18:33;25.30;99.90
60039;DHT22;45916;52.734;6.544;2023-09-18T12:21:02;25.20;99.90
60039;DHT22;45916;52.734;6.544;2023-09-18T12:23:38;24.90;99.90
60039;DHT22;45916;52.734;6.544;2023-09-18T12:26:05;24.70;99.90
60039;DHT22;45916;52.734;6.544;2023-09-18T12:28:35;24.40;99.90
60039;DHT22;45916;52.734;6.544;2023-09-18T12:31:02;24.20;99.90
60039;DHT22;45916;52.734;6.544;2023-09-18T12:33:34;24.20;99.90
60039;DHT22;45916;52.734;6.544;2023-09-18T12:36:01;24.50;99.90
60039;DHT22;45916;52.734;6.544;2023-09-18T12:38:27;24.90;99.90
60039;DHT22;45916;52.734;6.544;2023-09-18T12:40:54;25.20;99.90
60039;DHT22;45916;52.734;6.544;2023-09-18T12:43:21;25.30;99.90
60039;DHT22;45916;52.734;6.544;2023-09-18T12:45:51;25.40;99.90
60039;DHT22;45916;52.734;6.544;2023-09-18T12:48:18;25.30;99.90
60039;DHT22;45916;52.734;6.544;2023-09-18T12:50:43;25.30;99.90
60039;DHT22;45916;52.734;6.544;2023-09-18T12:53:13;25.10;99.90
60039;DHT22;45916;52.734;6.544;2023-09-18T12:55:40;25.20;99.90
60039;DHT22;45916;52.734;6.544;2023-09-18T12:58:09;25.40;99.90
60039;DHT22;45916;52.734;6.544;2023-09-18T13:00:35;25.30;99.90
60039;DHT22;45916;52.734;6.544;2023-09-18T13:03:03;25.20;99.90
60039;DHT22;45916;52.734;6.544;2023-09-18T13:05:30;25.10;99.90
60039;DHT22;45916;52.734;6.544;2023-09-18T13:08:04;25.00;99.90
60039;DHT22;45916;52.734;6.544;2023-09-18T13:10:44;25.00;99.90
60039;DHT22;45916;52.734;6.544;2023-09-18T13:13:17;25.10;99.90
60039;DHT22;45916;52.734;6.544;2023-09-18T13:15:43;25.20;99.90
60039;DHT22;45916;52.734;6.544;2023-09-18T13:18:11;25.10;99.90
60039;DHT22;45916;52.734;6.544;2023-09-18T13:20:38;25.10;99.90
60039;DHT22;45916;52.734;6.544;2023-09-18T13:23:05;24.90;99.90
60039;DHT22;45916;52.734;6.544;2023-09-18T13:25:36;24.80;99.90
60039;DHT22;45916;52.734;6.544;2023-09-18T13:28:07;24.80;99.90
60039;DHT22;45916;52.734;6.544;2023-09-18T13:30:36;24.70;99.90
60039;DHT22;45916;52.734;6.544;2023-09-18T13:33:13;24.60;99.90
60039;DHT22;45916;52.734;6.544;2023-09-18T13:35:43;24.50;99.90
60039;DHT22;45916;52.734;6.544;2023-09-18T13:38:09;24.40;99.90
60039;DHT22;45916;52.734;6.544;2023-09-18T13:40:46;24.30;99.90
60039;DHT22;45916;52.734;6.544;2023-09-18T13:43:13;24.30;99.90
60039;DHT22;45916;52.734;6.544;2023-09-18T13:45:41;24.40;99.90
60039;DHT22;45916;52.734;6.544;2023-09-18T13:48:07;24.60;99.90
60039;DHT22;45916;52.734;6.544;2023-09-18T13:50:35;24.70;99.90
60039;DHT22;45916;52.734;6.544;2023-09-18T13:53:02;24.70;99.90
60039;DHT22;45916;52.734;6.544;2023-09-18T13:55:29;24.70;99.90
60039;DHT22;45916;52.734;6.544;2023-09-18T13:57:55;24.70;99.90
60039;DHT22;45916;52.734;6.544;2023-09-18T14:00:21;24.60;99.90
60039;DHT22;45916;52.734;6.544;2023-09-18T14:02:47;24.40;99.90
60039;DHT22;45916;52.734;6.544;2023-09-18T14:05:13;24.40;99.90
60039;DHT22;45916;52.734;6.544;2023-09-18T14:07:38;24.30;99.90
60039;DHT22;45916;52.734;6.544;2023-09-18T14:10:06;24.30;99.90
60039;DHT22;45916;52.734;6.544;2023-09-18T14:12:32;24.40;99.90
60039;DHT22;45916;52.734;6.544;2023-09-18T14:14:58;24.20;99.90
60039;DHT22;45916;52.734;6.544;2023-09-18T14:17:25;24.20;99.90
60039;DHT22;45916;52.734;6.544;2023-09-18T14:19:51;24.20;99.90
60039;DHT22;45916;52.734;6.544;2023-09-18T14:22:19;24.10;99.90
60039;DHT22;45916;52.734;6.544;2023-09-18T14:24:45;24.10;99.90
60039;DHT22;45916;52.734;6.544;2023-09-18T14:27:11;24.00;99.90
60039;DHT22;45916;52.734;6.544;2023-09-18T14:29:38;23.90;99.90
60039;DHT22;45916;52.734;6.544;2023-09-18T14:32:04;23.70;99.90
60039;DHT22;45916;52.734;6.544;2023-09-18T14:34:29;23.60;99.90
60039;DHT22;45916;52.734;6.544;2023-09-18T14:37:01;23.50;99.90
60039;DHT22;45916;52.734;6.544;2023-09-18T14:39:32;23.50;99.90
60039;DHT22;45916;52.734;6.544;2023-09-18T14:41:58;23.40;99.90
60039;DHT22;45916;52.734;6.544;2023-09-18T14:44:25;23.40;99.90
60039;DHT22;45916;52.734;6.544;2023-09-18T14:46:51;23.30;99.90
60039;DHT22;45916;52.734;6.544;2023-09-18T14:49:18;23.30;99.90
60039;DHT22;45916;52.734;6.544;2023-09-18T14:51:44;23.20;99.90
60039;DHT22;45916;52.734;6.544;2023-09-18T14:54:09;23.20;99.90
60039;DHT22;45916;52.734;6.544;2023-09-18T14:56:36;23.20;99.90
60039;DHT22;45916;52.734;6.544;2023-09-18T14:59:03;23.10;99.90
60039;DHT22;45916;52.734;6.544;2023-09-18T15:01:28;23.10;99.90
60039;DHT22;45916;52.734;6.544;2023-09-18T15:03:54;23.10;99.90
60039;DHT22;45916;52.734;6.544;2023-09-18T15:06:20;23.00;99.90
60039;DHT22;45916;52.734;6.544;2023-09-18T15:08:46;23.00;99.90
60039;DHT22;45916;52.734;6.544;2023-09-18T15:11:13;23.00;99.90
60039;DHT22;45916;52.734;6.544;2023-09-18T15:13:42;22.90;99.90
60039;DHT22;45916;52.734;6.544;2023-09-18T15:16:08;22.80;99.90
60039;DHT22;45916;52.734;6.544;2023-09-18T15:18:34;22.90;99.90
60039;DHT22;45916;52.734;6.544;2023-09-18T15:21:01;22.80;99.90
60039;DHT22;45916;52.734;6.544;2023-09-18T15:23:27;22.80;99.90
60039;DHT22;45916;52.734;6.544;2023-09-18T15:25:55;22.70;99.90
60039;DHT22;45916;52.734;6.544;2023-09-18T15:28:22;22.70;99.90
60039;DHT22;45916;52.734;6.544;2023-09-18T15:30:50;22.70;99.90
60039;DHT22;45916;52.734;6.544;2023-09-18T15:33:16;22.70;99.90
60039;DHT22;45916;52.734;6.544;2023-09-18T15:35:43;22.70;99.90